createdAt,value
2019-01-31T00:02:31.276Z,6.47
2019-01-31T00:05:46.927Z,5.73
2019-01-31T00:08:18.396Z,5.60
2019-01-31T00:10:58.186Z,5.47
2019-01-31T00:13:49.144Z,5.83
2019-01-31T00:16:32.558Z,6.00
2019-01-31T00:19:09.597Z,5.90
2019-01-31T00:22:10.089Z,5.53
2019-01-31T00:24:41.544Z,5.53
2019-01-31T00:27:21.951Z,5.30
2019-01-31T00:29:56.161Z,5.90
2019-01-31T00:32:49.195Z,4.73
2019-01-31T00:35:23.347Z,4.40
2019-01-31T00:38:12.766Z,4.13
2019-01-31T00:40:52.734Z,3.57
2019-01-31T00:43:48.856Z,3.60
2019-01-31T00:46:25.919Z,3.50
2019-01-31T00:49:14.817Z,3.63
2019-01-31T00:52:19.936Z,3.77
2019-01-31T00:55:15.058Z,3.60
2019-01-31T00:58:10.574Z,4.10
2019-01-31T01:01:02.618Z,4.17
2019-01-31T01:03:52.237Z,4.27
2019-01-31T01:06:29.305Z,4.27
2019-01-31T01:09:16.900Z,3.90
2019-01-31T01:12:04.583Z,3.77
2019-01-31T01:14:45.331Z,3.47
2019-01-31T01:17:26.033Z,3.43
2019-01-31T01:20:09.557Z,4.10
2019-01-31T01:22:47.228Z,3.63
2019-01-31T01:25:21.637Z,3.70
2019-01-31T01:28:02.334Z,3.63
2019-01-31T01:30:42.926Z,3.77
2019-01-31T01:33:30.588Z,3.47
2019-01-31T01:36:11.350Z,3.53
2019-01-31T01:38:51.698Z,3.20
2019-01-31T01:41:42.802Z,4.20
2019-01-31T01:44:32.173Z,3.40
2019-01-31T01:47:18.705Z,3.00
2019-01-31T01:50:02.074Z,3.00
2019-01-31T01:53:03.765Z,3.63
2019-01-31T01:55:56.613Z,3.90
2019-01-31T01:58:36.779Z,3.17
2019-01-31T02:01:23.379Z,3.23
2019-01-31T02:04:15.840Z,3.90
2019-01-31T02:06:53.229Z,3.53
2019-01-31T02:09:30.296Z,4.07
2019-01-31T02:12:16.494Z,3.60
2019-01-31T02:15:19.559Z,3.50
2019-01-31T02:17:53.714Z,3.77
2019-01-31T02:20:28.195Z,4.03
2019-01-31T02:23:02.388Z,4.10
2019-01-31T02:25:36.703Z,4.27
2019-01-31T02:28:16.993Z,3.83
2019-01-31T02:31:03.867Z,3.77
2019-01-31T02:33:44.549Z,3.43
2019-01-31T02:36:22.124Z,3.50
2019-01-31T02:39:10.165Z,3.47
2019-01-31T02:41:56.806Z,3.67
2019-01-31T02:44:43.068Z,3.17
2019-01-31T02:47:32.578Z,2.83
2019-01-31T02:50:04.040Z,3.23
2019-01-31T02:52:56.763Z,3.03
2019-01-31T02:55:40.402Z,3.60
2019-01-31T02:58:14.700Z,4.00
2019-01-31T03:00:55.016Z,3.70
2019-01-31T03:03:32.482Z,3.50
2019-01-31T03:06:28.188Z,3.70
2019-01-31T03:09:08.881Z,3.80
2019-01-31T03:11:57.764Z,3.30
2019-01-31T03:14:29.240Z,4.00
2019-01-31T03:17:20.153Z,4.23
2019-01-31T03:19:54.475Z,3.93
2019-01-31T03:22:31.725Z,4.40
2019-01-31T03:25:19.472Z,3.60
2019-01-31T03:28:24.545Z,4.13
2019-01-31T03:31:15.704Z,3.90
2019-01-31T03:34:18.218Z,3.60
2019-01-31T03:36:52.354Z,4.03
2019-01-31T03:39:41.743Z,4.50
2019-01-31T03:42:22.158Z,4.37
2019-01-31T03:44:56.403Z,3.97
2019-01-31T03:47:42.626Z,3.80
2019-01-31T03:50:16.843Z,3.70
2019-01-31T03:52:57.353Z,4.00
2019-01-31T03:55:31.799Z,3.83
2019-01-31T03:58:15.263Z,4.40
2019-01-31T04:01:06.597Z,4.20
2019-01-31T04:03:38.057Z,4.50
2019-01-31T04:06:09.529Z,4.30
2019-01-31T04:08:38.060Z,4.13
2019-01-31T04:11:06.608Z,4.50
2019-01-31T04:13:34.899Z,4.50
2019-01-31T04:16:03.239Z,4.53
2019-01-31T04:18:31.715Z,4.23
2019-01-31T04:21:00.264Z,4.50
2019-01-31T04:23:28.541Z,4.27
2019-01-31T04:25:57.111Z,4.37
2019-01-31T04:28:25.648Z,4.03
2019-01-31T04:30:53.935Z,5.07
2019-01-31T04:33:22.302Z,4.37
2019-01-31T04:35:50.583Z,4.00
2019-01-31T04:38:19.870Z,3.63
2019-01-31T04:40:48.538Z,3.67
2019-01-31T04:43:17.074Z,3.80
2019-01-31T04:45:45.606Z,4.13
2019-01-31T04:48:13.904Z,4.60
2019-01-31T04:50:42.180Z,3.43
2019-01-31T04:53:10.471Z,4.20
2019-01-31T04:55:39.011Z,3.50
2019-01-31T04:58:07.306Z,3.70
2019-01-31T05:00:35.585Z,4.40
2019-01-31T05:03:03.868Z,4.03
2019-01-31T05:05:32.147Z,4.10
2019-01-31T05:08:00.442Z,4.43
2019-01-31T05:10:28.975Z,4.47
2019-01-31T05:12:57.533Z,4.60
2019-01-31T05:15:25.822Z,4.23
2019-01-31T05:17:54.474Z,4.60
2019-01-31T05:20:22.750Z,4.43
2019-01-31T05:22:51.039Z,4.80
2019-01-31T05:25:19.320Z,4.90
2019-01-31T05:27:47.594Z,4.70
2019-01-31T05:30:16.736Z,4.67
2019-01-31T05:32:45.169Z,4.57
2019-01-31T05:35:13.693Z,4.73
2019-01-31T05:37:42.020Z,5.80
2019-01-31T05:40:12.763Z,4.83
2019-01-31T05:42:41.048Z,5.40
2019-01-31T05:45:16.173Z,4.90
2019-01-31T05:47:44.508Z,5.53
2019-01-31T05:50:17.482Z,4.77
2019-01-31T05:52:45.830Z,4.83
2019-01-31T05:55:14.947Z,5.03
2019-01-31T05:57:43.299Z,4.90
2019-01-31T06:00:14.903Z,5.27
2019-01-31T06:02:43.241Z,5.13
2019-01-31T06:05:11.713Z,6.40
2019-01-31T06:07:39.946Z,5.80
2019-01-31T06:10:10.881Z,5.17
2019-01-31T06:12:39.164Z,6.00
2019-01-31T06:15:15.861Z,5.60
2019-01-31T06:17:44.135Z,6.47
2019-01-31T06:20:15.619Z,6.00
2019-01-31T06:22:43.900Z,6.37
2019-01-31T06:25:12.267Z,6.00
2019-01-31T06:27:40.547Z,6.30
2019-01-31T06:30:14.856Z,6.30
2019-01-31T06:32:43.134Z,6.80
2019-01-31T06:35:12.596Z,6.47
2019-01-31T06:37:40.904Z,7.33
2019-01-31T06:40:12.695Z,7.33
2019-01-31T06:42:40.989Z,7.57
2019-01-31T06:45:12.587Z,7.23
2019-01-31T06:47:40.876Z,7.70
2019-01-31T06:50:09.591Z,7.03
2019-01-31T06:52:37.964Z,8.07
2019-01-31T06:55:08.784Z,8.07
2019-01-31T06:57:37.152Z,7.90
2019-01-31T07:00:08.598Z,8.27
2019-01-31T07:02:37.147Z,8.50
2019-01-31T07:05:07.132Z,8.07
2019-01-31T07:07:35.434Z,8.20
2019-01-31T07:10:06.876Z,8.97
2019-01-31T07:12:35.172Z,8.90
2019-01-31T07:15:03.527Z,9.00
2019-01-31T07:17:31.822Z,8.80
2019-01-31T07:20:04.240Z,7.97
2019-01-31T07:22:32.600Z,8.20
2019-01-31T07:25:00.832Z,8.17
2019-01-31T07:27:29.123Z,8.40
2019-01-31T07:29:57.662Z,8.67
2019-01-31T07:32:25.943Z,8.17
2019-01-31T07:34:54.317Z,8.47
2019-01-31T07:37:22.609Z,8.70
2019-01-31T07:39:50.893Z,8.07
2019-01-31T07:42:22.192Z,8.17
2019-01-31T07:44:50.492Z,8.67
2019-01-31T07:47:18.764Z,9.80
2019-01-31T07:49:47.056Z,9.03
2019-01-31T07:52:15.442Z,8.93
2019-01-31T07:54:43.731Z,9.93
2019-01-31T07:57:12.340Z,10.23
2019-01-31T07:59:40.897Z,9.77
2019-01-31T08:02:09.178Z,10.30
2019-01-31T08:04:37.553Z,9.40
2019-01-31T08:07:05.900Z,8.90
2019-01-31T08:09:34.316Z,8.73
2019-01-31T08:12:02.573Z,8.37
2019-01-31T08:14:30.879Z,8.73
2019-01-31T08:16:59.164Z,7.73
2019-01-31T08:19:27.751Z,8.17
2019-01-31T08:21:56.041Z,8.77
2019-01-31T08:24:24.624Z,8.43
2019-01-31T08:26:55.764Z,9.20
2019-01-31T08:29:23.017Z,8.37
2019-01-31T08:31:51.425Z,8.37
2019-01-31T08:34:19.718Z,8.23
2019-01-31T08:36:48.014Z,8.93
2019-01-31T08:39:16.559Z,9.53
2019-01-31T08:41:44.984Z,9.63
2019-01-31T08:44:13.269Z,9.90
2019-01-31T08:46:41.835Z,9.47
2019-01-31T08:49:10.184Z,8.67
2019-01-31T08:51:38.724Z,9.20
2019-01-31T08:54:19.444Z,9.37
2019-01-31T08:56:47.953Z,8.97
2019-01-31T08:59:16.538Z,8.47
2019-01-31T09:01:44.824Z,8.03
2019-01-31T09:04:13.409Z,7.93
2019-01-31T09:06:41.788Z,7.97
2019-01-31T09:09:11.575Z,8.33
2019-01-31T09:11:39.963Z,7.23
2019-01-31T09:14:08.657Z,7.40
2019-01-31T09:16:37.333Z,8.00
2019-01-31T09:19:07.007Z,7.97
2019-01-31T09:21:38.017Z,7.67
2019-01-31T09:24:09.480Z,7.63
2019-01-31T09:26:44.058Z,7.47
2019-01-31T09:29:15.562Z,7.60
2019-01-31T09:32:10.055Z,8.50
2019-01-31T09:34:50.849Z,7.60
2019-01-31T09:37:42.058Z,7.63
2019-01-31T09:40:39.578Z,7.90
2019-01-31T09:43:41.276Z,7.40
2019-01-31T09:46:13.170Z,6.53
2019-01-31T09:49:21.516Z,7.60
2019-01-31T09:52:35.443Z,7.37
2019-01-31T09:55:12.897Z,6.93
2019-01-31T09:57:51.081Z,6.93
2019-01-31T10:00:34.695Z,6.93
2019-01-31T10:03:24.574Z,7.20
2019-01-31T10:06:07.830Z,8.13
2019-01-31T10:08:59.186Z,7.80
2019-01-31T10:11:33.759Z,7.87
2019-01-31T10:14:12.606Z,7.27
2019-01-31T10:17:24.761Z,8.07
2019-01-31T10:20:18.470Z,7.33
2019-01-31T10:22:56.527Z,7.10
2019-01-31T10:25:37.113Z,8.10
2019-01-31T10:28:20.255Z,7.43
2019-01-31T10:30:57.557Z,7.20
2019-01-31T10:33:50.284Z,7.00
2019-01-31T10:36:35.342Z,7.03
2019-01-31T10:39:36.840Z,8.10
2019-01-31T10:42:50.374Z,7.43
2019-01-31T10:45:31.474Z,8.60
2019-01-31T10:48:08.808Z,7.73
2019-01-31T10:50:40.692Z,7.60
2019-01-31T10:53:28.457Z,7.87
2019-01-31T10:56:18.455Z,7.83
2019-01-31T10:59:04.836Z,8.43
2019-01-31T11:01:51.287Z,7.80
2019-01-31T11:04:44.007Z,7.90
2019-01-31T11:07:30.102Z,8.07
2019-01-31T11:10:19.413Z,7.43
2019-01-31T11:13:02.908Z,7.20
2019-01-31T11:15:39.891Z,7.43
2019-01-31T11:18:11.348Z,7.10
2019-01-31T11:20:54.641Z,7.07
2019-01-31T11:23:32.013Z,7.53
2019-01-31T11:26:19.154Z,7.20
2019-01-31T11:29:13.019Z,7.60
2019-01-31T11:31:58.081Z,7.90
2019-01-31T11:34:51.945Z,7.73
2019-01-31T11:37:35.213Z,8.40
2019-01-31T11:40:18.415Z,7.30
2019-01-31T11:42:55.739Z,8.00
2019-01-31T11:45:43.747Z,9.37
2019-01-31T11:48:18.228Z,8.87
2019-01-31T11:50:55.809Z,9.10
2019-01-31T11:53:49.991Z,8.70
2019-01-31T11:56:39.421Z,9.40
2019-01-31T11:59:07.952Z,8.93
2019-01-31T12:01:36.304Z,8.90
2019-01-31T12:04:07.302Z,8.53
2019-01-31T12:06:35.721Z,8.47
2019-01-31T12:09:07.174Z,9.07
2019-01-31T12:11:35.722Z,8.73
2019-01-31T12:14:04.489Z,9.10
2019-01-31T12:16:32.789Z,8.93
2019-01-31T12:19:01.098Z,8.37
2019-01-31T12:21:29.547Z,8.30
2019-01-31T12:23:57.836Z,8.13
2019-01-31T12:26:26.199Z,7.90
2019-01-31T12:28:54.551Z,7.83
2019-01-31T12:31:22.863Z,8.53
2019-01-31T12:33:51.124Z,8.40
2019-01-31T12:36:19.423Z,8.53
2019-01-31T12:38:47.776Z,8.50
2019-01-31T12:41:16.077Z,8.90
2019-01-31T12:43:44.361Z,15.63
2019-01-31T12:46:12.668Z,10.30
2019-01-31T12:48:41.207Z,9.10
2019-01-31T12:51:09.565Z,8.93
2019-01-31T12:53:37.857Z,9.03
2019-01-31T12:56:06.315Z,8.87
2019-01-31T12:58:35.230Z,10.00
2019-01-31T13:01:03.762Z,8.93
2019-01-31T13:03:32.061Z,9.13
2019-01-31T13:06:00.613Z,9.43
2019-01-31T13:08:28.902Z,9.03
2019-01-31T13:10:57.263Z,9.67
2019-01-31T13:13:25.805Z,9.70
2019-01-31T13:15:54.345Z,9.93
2019-01-31T13:18:22.646Z,9.40
2019-01-31T13:20:51.254Z,10.33
2019-01-31T13:23:19.815Z,9.70
2019-01-31T13:25:48.354Z,11.20
2019-01-31T13:28:16.653Z,10.50
2019-01-31T13:30:44.936Z,10.20
2019-01-31T13:33:13.525Z,11.00
2019-01-31T13:35:41.810Z,11.37
2019-01-31T13:38:10.234Z,9.90
2019-01-31T13:40:38.738Z,10.27
2019-01-31T13:43:07.370Z,10.30
2019-01-31T13:45:36.330Z,9.53
2019-01-31T13:48:07.461Z,9.07
2019-01-31T13:50:35.882Z,8.83
2019-01-31T13:53:06.487Z,9.60
2019-01-31T13:55:34.756Z,9.83
2019-01-31T13:58:03.135Z,9.43
2019-01-31T14:00:31.752Z,10.10
2019-01-31T14:03:00.034Z,10.00
2019-01-31T14:05:30.061Z,10.67
2019-01-31T14:07:58.459Z,11.47
2019-01-31T14:10:27.304Z,11.03
2019-01-31T14:12:55.682Z,11.43
2019-01-31T14:15:33.671Z,10.87
2019-01-31T14:17:56.963Z,11.67
2019-01-31T14:20:27.118Z,11.53
2019-01-31T14:22:55.821Z,11.30
2019-01-31T14:25:24.358Z,11.37
2019-01-31T14:27:52.779Z,11.03
2019-01-31T14:30:24.218Z,10.50
2019-01-31T14:32:53.127Z,11.03
2019-01-31T14:35:21.772Z,10.13
2019-01-31T14:37:50.172Z,9.60
2019-01-31T14:40:18.547Z,9.07
2019-01-31T14:42:46.823Z,8.97
2019-01-31T14:45:17.266Z,9.70
2019-01-31T14:47:45.506Z,9.27
2019-01-31T14:50:16.978Z,10.17
2019-01-31T14:52:45.588Z,9.77
2019-01-31T14:55:13.946Z,9.73
2019-01-31T14:57:42.301Z,9.50
2019-01-31T15:00:16.448Z,10.43
2019-01-31T15:02:44.861Z,8.87
2019-01-31T15:05:15.204Z,9.20
2019-01-31T15:07:43.545Z,9.43
2019-01-31T15:10:17.520Z,10.83
2019-01-31T15:12:47.993Z,11.80
2019-01-31T15:15:17.476Z,11.07
2019-01-31T15:17:46.083Z,10.80
2019-01-31T15:20:35.830Z,11.00
2019-01-31T15:22:55.895Z,11.20
2019-01-31T15:25:24.340Z,12.50
2019-01-31T15:27:52.699Z,11.77
2019-01-31T15:30:27.815Z,12.23
2019-01-31T15:32:56.358Z,12.30
2019-01-31T15:35:24.656Z,12.50
2019-01-31T15:37:53.020Z,11.57
2019-01-31T15:40:26.891Z,13.53
2019-01-31T15:42:55.278Z,13.47
2019-01-31T15:45:23.557Z,11.87
2019-01-31T15:47:51.927Z,12.70
2019-01-31T15:50:20.274Z,13.60
2019-01-31T15:52:48.637Z,13.27
2019-01-31T15:55:19.780Z,12.33
2019-01-31T15:57:48.146Z,12.73
2019-01-31T16:00:23.956Z,12.57
2019-01-31T16:02:52.575Z,12.90
2019-01-31T16:05:22.147Z,13.23
2019-01-31T16:07:50.875Z,13.77
2019-01-31T16:10:19.263Z,13.53
2019-01-31T16:12:48.058Z,13.13
2019-01-31T16:15:17.688Z,15.17
2019-01-31T16:17:46.058Z,14.43
2019-01-31T16:20:14.922Z,15.53
2019-01-31T16:22:43.657Z,14.63
2019-01-31T16:25:12.187Z,15.43
2019-01-31T16:27:40.542Z,14.47
2019-01-31T16:30:19.080Z,14.30
2019-01-31T16:32:47.821Z,15.60
2019-01-31T16:35:18.046Z,14.60
2019-01-31T16:37:47.170Z,16.00
2019-01-31T16:40:18.976Z,15.37
2019-01-31T16:42:47.321Z,14.50
2019-01-31T16:45:18.736Z,15.17
2019-01-31T16:47:47.086Z,14.40
2019-01-31T16:50:17.530Z,15.77
2019-01-31T16:52:45.977Z,15.87
2019-01-31T16:55:17.184Z,14.37
2019-01-31T16:57:46.002Z,14.63
2019-01-31T17:00:32.425Z,13.93
2019-01-31T17:03:01.080Z,14.80
2019-01-31T17:05:33.237Z,15.83
2019-01-31T17:08:04.373Z,15.23
2019-01-31T17:10:33.003Z,14.80
2019-01-31T17:13:01.309Z,15.03
2019-01-31T17:15:29.677Z,14.83
2019-01-31T17:17:58.301Z,14.83
2019-01-31T17:20:32.609Z,16.03
2019-01-31T17:23:01.338Z,15.23
2019-01-31T17:25:29.681Z,15.30
2019-01-31T17:27:57.976Z,16.20
2019-01-31T17:30:28.155Z,14.67
2019-01-31T17:32:56.898Z,14.33
2019-01-31T17:35:25.257Z,15.47
2019-01-31T17:37:53.548Z,14.70
2019-01-31T17:40:33.078Z,15.97
2019-01-31T17:43:01.383Z,13.83
2019-01-31T17:45:30.905Z,13.77
2019-01-31T17:47:59.607Z,12.87
2019-01-31T17:50:28.215Z,13.33
2019-01-31T17:52:56.531Z,12.23
2019-01-31T17:55:26.618Z,12.67
2019-01-31T17:57:55.259Z,13.23
2019-01-31T18:00:27.898Z,13.10
2019-01-31T18:02:56.652Z,12.63
2019-01-31T18:05:24.998Z,12.47
2019-01-31T18:07:53.303Z,12.10
2019-01-31T18:10:22.925Z,11.63
2019-01-31T18:12:51.204Z,11.63
2019-01-31T18:15:19.937Z,12.23
2019-01-31T18:17:48.504Z,12.20
2019-01-31T18:20:21.686Z,13.57
2019-01-31T18:22:50.042Z,12.70
2019-01-31T18:25:18.367Z,13.10
2019-01-31T18:27:46.652Z,13.30
2019-01-31T18:30:32.642Z,13.73
2019-01-31T18:33:00.932Z,12.70
2019-01-31T18:35:29.315Z,12.73
2019-01-31T18:37:57.600Z,11.13
2019-01-31T18:40:31.311Z,12.23
2019-01-31T18:42:59.586Z,11.07
2019-01-31T18:45:33.977Z,12.50
2019-01-31T18:48:02.551Z,11.40
2019-01-31T18:50:35.768Z,12.43
2019-01-31T18:53:04.206Z,12.03
2019-01-31T18:55:32.901Z,11.73
2019-01-31T18:58:01.538Z,10.17
2019-01-31T19:00:35.227Z,10.97
2019-01-31T19:03:03.587Z,10.83
2019-01-31T19:05:32.215Z,10.93
2019-01-31T19:08:00.576Z,10.70
2019-01-31T19:10:29.126Z,10.57
2019-01-31T19:13:11.725Z,10.07
2019-01-31T19:15:40.044Z,9.07
2019-01-31T19:18:08.558Z,10.47
2019-01-31T19:20:36.932Z,9.53
2019-01-31T19:23:07.255Z,10.20
2019-01-31T19:25:35.535Z,9.50
2019-01-31T19:28:04.175Z,9.97
2019-01-31T19:30:38.035Z,9.00
2019-01-31T19:33:07.726Z,10.60
2019-01-31T19:35:36.380Z,11.50
2019-01-31T19:38:06.667Z,10.60
2019-01-31T19:40:40.377Z,11.23
2019-01-31T19:43:08.731Z,10.53
2019-01-31T19:45:38.949Z,10.80
2019-01-31T19:48:07.834Z,9.93
2019-01-31T19:50:36.142Z,10.43
2019-01-31T19:53:05.378Z,10.73
2019-01-31T19:55:33.757Z,10.23
2019-01-31T19:58:02.304Z,9.27
2019-01-31T20:00:30.651Z,10.50
2019-01-31T20:02:58.960Z,10.27
2019-01-31T20:05:27.384Z,10.17
2019-01-31T20:07:56.295Z,10.80
2019-01-31T20:10:27.413Z,10.93
2019-01-31T20:12:56.117Z,10.00
2019-01-31T20:15:24.738Z,10.07
2019-01-31T20:17:53.357Z,9.93
2019-01-31T20:20:23.854Z,9.80
2019-01-31T20:22:53.202Z,10.80
2019-01-31T20:25:21.816Z,10.60
2019-01-31T20:27:50.332Z,10.03
2019-01-31T20:30:27.599Z,9.43
2019-01-31T20:32:56.949Z,10.13
2019-01-31T20:35:25.306Z,9.57
2019-01-31T20:37:53.760Z,9.80
2019-01-31T20:40:24.914Z,9.43
2019-01-31T20:42:53.505Z,9.27
2019-01-31T20:45:21.869Z,9.13
2019-01-31T20:47:50.152Z,10.03
2019-01-31T20:50:24.024Z,9.67
2019-01-31T20:52:52.379Z,9.57
2019-01-31T20:55:20.895Z,9.83
2019-01-31T20:57:49.493Z,9.50
2019-01-31T21:00:25.361Z,10.43
2019-01-31T21:02:53.956Z,10.40
2019-01-31T21:05:22.385Z,10.40
2019-01-31T21:07:51.014Z,10.83
2019-01-31T21:10:19.481Z,10.10
2019-01-31T21:12:47.837Z,10.30
2019-01-31T21:15:18.745Z,9.93
2019-01-31T21:17:47.020Z,9.30
2019-01-31T21:20:17.452Z,9.93
2019-01-31T21:22:45.806Z,10.87
2019-01-31T21:25:16.254Z,10.10
2019-01-31T21:27:44.535Z,10.23
2019-01-31T21:30:21.512Z,9.80
2019-01-31T21:32:49.808Z,9.60
2019-01-31T21:35:18.706Z,9.43
2019-01-31T21:37:46.989Z,10.43
2019-01-31T21:40:20.309Z,9.17
2019-01-31T21:42:48.674Z,10.07
2019-01-31T21:45:21.462Z,9.43
2019-01-31T21:47:49.822Z,9.17
2019-01-31T21:50:32.177Z,9.40
2019-01-31T21:53:00.455Z,8.70
2019-01-31T21:55:28.893Z,8.57
2019-01-31T21:57:57.163Z,8.33
2019-01-31T22:00:31.199Z,8.83
2019-01-31T22:02:59.477Z,8.63
2019-01-31T22:05:27.857Z,8.93
2019-01-31T22:07:56.443Z,7.97
2019-01-31T22:10:24.906Z,7.90
2019-01-31T22:12:53.166Z,8.13
2019-01-31T22:15:27.156Z,7.67
2019-01-31T22:17:59.748Z,7.33
2019-01-31T22:20:25.680Z,7.57
2019-01-31T22:22:54.591Z,7.40
2019-01-31T22:25:23.908Z,6.97
2019-01-31T22:27:52.266Z,7.47
2019-01-31T22:30:22.984Z,7.23
2019-01-31T22:32:51.668Z,7.93
2019-01-31T22:35:20.011Z,7.50
2019-01-31T22:37:48.306Z,7.57
2019-01-31T22:40:17.726Z,7.33
2019-01-31T22:42:46.011Z,7.10
2019-01-31T22:45:19.020Z,7.23
2019-01-31T22:47:47.564Z,6.83
2019-01-31T22:50:17.786Z,7.10
2019-01-31T22:52:46.085Z,8.10
2019-01-31T22:55:16.704Z,7.10
2019-01-31T22:57:44.993Z,7.77
2019-01-31T23:00:16.514Z,7.53
2019-01-31T23:02:44.876Z,6.60
2019-01-31T23:05:13.154Z,6.97
2019-01-31T23:07:41.703Z,5.60
2019-01-31T23:10:11.623Z,6.00
2019-01-31T23:12:39.915Z,5.80
2019-01-31T23:15:10.228Z,5.77
2019-01-31T23:17:38.585Z,5.60
2019-01-31T23:20:10.274Z,5.80
2019-01-31T23:22:38.559Z,5.23
2019-01-31T23:25:07.700Z,5.87
2019-01-31T23:27:36.423Z,5.50
2019-01-31T23:30:13.315Z,5.53
2019-01-31T23:32:41.603Z,5.00
2019-01-31T23:35:10.056Z,4.87
2019-01-31T23:37:38.321Z,5.00
2019-01-31T23:40:11.577Z,5.20
2019-01-31T23:42:39.879Z,5.17
2019-01-31T23:45:16.477Z,4.77
2019-01-31T23:47:49.089Z,4.90
2019-01-31T23:50:14.839Z,4.70
2019-01-31T23:52:43.113Z,4.70
2019-01-31T23:55:17.365Z,4.63
2019-01-31T23:57:45.646Z,4.90
